Time;durP1;ratioP1;P1;durP2;ratioP2;P2;SDS_P1;SDS_P2;PMS_P1;PMS_P2;Temp;Humidity;BMP_temperature;BMP_pressure;BME280_temperature;BME280_humidity;BME280_pressure;Samples;Min_cycle;Max_cycle;Signal;HPM_P1;HPM_P2
2023/05/09 00:01:50;;;;;;;8.55;8.35;;;14.20;99.90;;;;;;5061475;28;20218;-77
2023/05/09 00:04:18;;;;;;;8.80;8.60;;;14.20;99.90;;;;;;5061284;28;20223;-77
2023/05/09 00:06:46;;;;;;;8.53;8.33;;;14.20;99.90;;;;;;5060374;28;20243;-77
2023/05/09 00:09:13;;;;;;;8.80;8.60;;;14.20;99.90;;;;;;5060048;28;20234;-78
2023/05/09 00:11:41;;;;;;;8.80;8.60;;;14.20;99.90;;;;;;5061126;28;20268;-77
2023/05/09 00:14:11;;;;;;;8.70;8.50;;;14.20;99.90;;;;;;5060941;28;20237;-77
2023/05/09 00:16:39;;;;;;;8.70;8.50;;;14.20;99.90;;;;;;5061248;28;20231;-77
2023/05/09 00:19:06;;;;;;;8.80;8.60;;;14.20;99.90;;;;;;5061293;28;20281;-78
2023/05/09 00:21:34;;;;;;;8.80;8.60;;;14.20;99.90;;;;;;5060660;28;20243;-77
2023/05/09 00:24:01;;;;;;;8.73;8.53;;;14.10;99.90;;;;;;5060810;28;20215;-76
2023/05/09 00:26:29;;;;;;;8.27;8.07;;;14.10;99.90;;;;;;5060720;28;20298;-77
2023/05/09 00:28:56;;;;;;;8.43;8.23;;;14.10;99.90;;;;;;5060843;28;20226;-77
2023/05/09 00:31:25;;;;;;;8.50;8.30;;;14.10;99.90;;;;;;5060328;28;20230;-78
2023/05/09 00:33:54;;;;;;;8.43;8.23;;;14.00;99.90;;;;;;5060778;28;20314;-78
2023/05/09 00:36:22;;;;;;;8.40;8.20;;;14.00;99.90;;;;;;5059989;28;20287;-78
2023/05/09 00:38:49;;;;;;;8.33;8.13;;;14.00;99.90;;;;;;5060565;28;20234;-77
2023/05/09 00:41:17;;;;;;;8.50;8.30;;;14.00;99.90;;;;;;5060878;28;20236;-77
2023/05/09 00:43:44;;;;;;;8.60;8.40;;;14.00;99.90;;;;;;5060933;28;20227;-77
2023/05/09 00:46:12;;;;;;;8.60;8.40;;;13.90;99.90;;;;;;5061022;28;20245;-77
2023/05/09 00:48:41;;;;;;;8.60;8.40;;;13.90;99.90;;;;;;5060525;28;20236;-77
2023/05/09 00:51:09;;;;;;;8.20;8.00;;;13.90;99.90;;;;;;5060758;28;20317;-77
2023/05/09 00:53:36;;;;;;;8.20;8.00;;;13.90;99.90;;;;;;5061821;28;20227;-78
2023/05/09 00:56:05;;;;;;;8.50;8.30;;;13.90;99.90;;;;;;5063339;28;20281;-77
2023/05/09 00:58:32;;;;;;;8.10;7.90;;;13.90;99.90;;;;;;5077225;28;20233;-77
2023/05/09 01:01:01;;;;;;;8.40;8.20;;;13.90;99.90;;;;;;5061554;28;20249;-77
2023/05/09 01:03:28;;;;;;;8.67;8.47;;;13.90;99.90;;;;;;5060833;28;20241;-77
2023/05/09 01:06:05;;;;;;;8.80;8.60;;;13.90;99.90;;;;;;5060240;28;20277;-77
2023/05/09 01:08:47;;;;;;;8.70;8.50;;;13.80;99.90;;;;;;5059583;28;20310;-76
2023/05/09 01:11:32;;;;;;;8.93;8.73;;;13.80;99.90;;;;;;5059502;28;20237;-76
2023/05/09 01:14:12;;;;;;;8.90;8.70;;;13.70;99.90;;;;;;5059187;28;20227;-76
2023/05/09 01:16:46;;;;;;;9.50;9.20;;;13.70;99.90;;;;;;5059602;28;20234;-76
2023/05/09 01:19:47;;;;;;;9.50;9.20;;;13.70;99.90;;;;;;5059935;28;20285;-76
2023/05/09 01:22:17;;;;;;;9.80;9.50;;;13.60;99.90;;;;;;5060379;28;20230;-76
2023/05/09 01:25:11;;;;;;;9.50;9.20;;;13.60;99.90;;;;;;5059834;28;20230;-76
2023/05/09 01:27:49;;;;;;;9.83;9.53;;;13.60;99.90;;;;;;5061223;28;20231;-76
2023/05/09 01:30:20;;;;;;;9.50;9.20;;;13.60;99.90;;;;;;5059949;28;20242;-76
2023/05/09 01:32:51;;;;;;;9.17;8.93;;;13.50;99.90;;;;;;5059322;28;20237;-77
2023/05/09 01:35:25;;;;;;;9.70;9.40;;;13.50;99.90;;;;;;5059553;28;20218;-77
2023/05/09 01:37:54;;;;;;;9.70;9.40;;;13.50;99.90;;;;;;5059385;28;20239;-77
2023/05/09 01:40:23;;;;;;;10.07;9.77;;;13.50;99.90;;;;;;5059277;28;20226;-77
2023/05/09 01:42:57;;;;;;;9.60;9.30;;;13.60;99.90;;;;;;5059172;28;20299;-77
2023/05/09 01:45:27;;;;;;;9.90;9.60;;;13.60;99.90;;;;;;5059130;28;20243;-77
2023/05/09 01:47:56;;;;;;;9.43;9.13;;;13.60;99.90;;;;;;5058914;28;20227;-76
2023/05/09 01:50:24;;;;;;;9.60;9.30;;;13.60;99.90;;;;;;5061539;28;20242;-77
2023/05/09 01:52:56;;;;;;;9.37;9.07;;;13.50;99.90;;;;;;5062274;28;20254;-77
2023/05/09 01:55:26;;;;;;;9.30;9.00;;;13.50;99.90;;;;;;5062388;28;20211;-77
2023/05/09 01:57:55;;;;;;;9.10;8.90;;;13.50;99.90;;;;;;5063086;28;20237;-77
2023/05/09 02:00:26;;;;;;;9.40;9.10;;;13.50;99.90;;;;;;5062171;28;20234;-77
2023/05/09 02:02:55;;;;;;;9.20;8.90;;;13.50;99.90;;;;;;5062533;28;20239;-77
2023/05/09 02:05:27;;;;;;;9.33;9.03;;;13.50;99.90;;;;;;5062039;28;20223;-77
2023/05/09 02:07:57;;;;;;;9.40;9.10;;;13.50;99.90;;;;;;5061750;28;20305;-77
2023/05/09 02:10:26;;;;;;;9.27;8.97;;;13.50;99.90;;;;;;5062026;28;20227;-77
2023/05/09 02:12:54;;;;;;;9.10;8.90;;;13.50;99.90;;;;;;5062233;28;20325;-76
2023/05/09 02:15:22;;;;;;;9.33;9.03;;;13.50;99.90;;;;;;5061799;28;20231;-77
2023/05/09 02:17:51;;;;;;;9.10;8.90;;;13.60;99.90;;;;;;5061363;28;20235;-77
2023/05/09 02:20:18;;;;;;;9.37;9.07;;;13.60;99.90;;;;;;5061247;28;20237;-77
2023/05/09 02:22:46;;;;;;;9.23;8.97;;;13.60;99.90;;;;;;5061625;28;20249;-77
2023/05/09 02:25:15;;;;;;;9.40;9.10;;;13.60;99.90;;;;;;5061544;28;20322;-77
2023/05/09 02:27:45;;;;;;;9.10;8.90;;;13.60;99.90;;;;;;5061960;28;20298;-77
2023/05/09 02:30:19;;;;;;;9.30;9.00;;;13.50;99.90;;;;;;5061374;28;20241;-77
2023/05/09 02:32:50;;;;;;;9.27;8.97;;;13.50;99.90;;;;;;5062168;28;20240;-76
2023/05/09 02:35:18;;;;;;;9.30;9.00;;;13.40;99.90;;;;;;5061765;28;20207;-77
2023/05/09 02:37:47;;;;;;;8.80;8.60;;;13.40;99.90;;;;;;5061573;28;20237;-77
2023/05/09 02:40:15;;;;;;;9.00;8.80;;;13.40;99.90;;;;;;5061544;28;20353;-77
2023/05/09 02:42:42;;;;;;;8.70;8.50;;;13.40;99.90;;;;;;5061151;28;20234;-77
2023/05/09 02:45:11;;;;;;;8.90;8.70;;;13.40;99.90;;;;;;5061432;28;20231;-77
2023/05/09 02:47:38;;;;;;;9.30;9.00;;;13.40;99.90;;;;;;5061178;28;20234;-76
2023/05/09 02:50:09;;;;;;;8.77;8.57;;;13.40;99.90;;;;;;5061453;28;20307;-77
2023/05/09 02:52:36;;;;;;;8.60;8.40;;;13.40;99.90;;;;;;5061612;28;20237;-77
2023/05/09 02:55:06;;;;;;;8.23;8.03;;;13.40;99.90;;;;;;5061205;28;20274;-77
2023/05/09 02:57:33;;;;;;;8.40;8.20;;;13.40;99.90;;;;;;5061563;28;20993;-77
2023/05/09 03:00:01;;;;;;;8.80;8.60;;;13.40;99.90;;;;;;5061243;28;20234;-78
2023/05/09 03:02:28;;;;;;;8.80;8.60;;;13.30;99.90;;;;;;5061182;28;20241;-76
2023/05/09 03:04:55;;;;;;;8.80;8.60;;;13.30;99.90;;;;;;5062052;28;20235;-78
2023/05/09 03:07:24;;;;;;;8.70;8.50;;;13.30;99.90;;;;;;5063069;28;20239;-78
2023/05/09 03:09:52;;;;;;;8.97;8.77;;;13.20;99.90;;;;;;5062128;28;20245;-76
2023/05/09 03:12:19;;;;;;;9.20;9.00;;;13.20;99.90;;;;;;5062069;28;20226;-78
2023/05/09 03:14:47;;;;;;;8.90;8.70;;;13.20;99.90;;;;;;5062665;28;20233;-78
2023/05/09 03:17:16;;;;;;;8.40;8.20;;;13.10;99.90;;;;;;5062729;28;20306;-78
2023/05/09 03:19:43;;;;;;;8.27;8.07;;;13.10;99.90;;;;;;5065772;28;20290;-79
2023/05/09 03:22:11;;;;;;;8.13;7.93;;;13.10;99.90;;;;;;5066607;28;20231;-76
2023/05/09 03:24:40;;;;;;;9.10;8.90;;;13.10;99.90;;;;;;5062495;28;20234;-77
2023/05/09 03:27:07;;;;;;;9.60;9.30;;;13.10;99.90;;;;;;5061846;28;20247;-77
2023/05/09 03:29:35;;;;;;;9.43;9.13;;;13.10;99.90;;;;;;5061232;28;20266;-77
2023/05/09 03:32:02;;;;;;;9.40;9.10;;;13.10;99.90;;;;;;5061327;28;20286;-77
2023/05/09 03:34:30;;;;;;;9.40;9.10;;;13.00;99.90;;;;;;5061228;28;20219;-75
2023/05/09 03:36:57;;;;;;;9.70;9.40;;;13.00;99.90;;;;;;5061647;28;20237;-77
2023/05/09 03:39:25;;;;;;;9.50;9.20;;;13.00;99.90;;;;;;5061311;28;20227;-77
2023/05/09 03:41:54;;;;;;;9.83;9.53;;;13.00;99.90;;;;;;5061405;28;20211;-77
2023/05/09 03:44:21;;;;;;;10.00;9.70;;;13.00;99.90;;;;;;5061214;28;20227;-77
2023/05/09 03:46:49;;;;;;;9.87;9.57;;;13.00;99.90;;;;;;5061215;28;20322;-77
2023/05/09 03:49:16;;;;;;;9.77;9.47;;;13.00;99.90;;;;;;5060398;28;20299;-77
2023/05/09 03:51:44;;;;;;;9.80;9.50;;;13.00;99.90;;;;;;5060942;28;20235;-77
2023/05/09 03:54:11;;;;;;;9.43;9.13;;;13.00;99.90;;;;;;5060685;28;20233;-77
2023/05/09 03:56:38;;;;;;;9.70;9.40;;;13.00;99.90;;;;;;5060526;28;20237;-77
2023/05/09 03:59:10;;;;;;;9.47;9.17;;;13.00;99.90;;;;;;5060996;28;20244;-77
2023/05/09 04:01:38;;;;;;;9.73;9.43;;;13.00;99.90;;;;;;5061121;28;20225;-77
2023/05/09 04:04:06;;;;;;;10.20;9.90;;;13.00;99.90;;;;;;5060750;28;20223;-77
2023/05/09 04:06:34;;;;;;;9.67;9.37;;;13.00;99.90;;;;;;5061096;28;20231;-77
2023/05/09 04:09:02;;;;;;;9.90;9.60;;;13.00;99.90;;;;;;5060478;28;20262;-77
2023/05/09 04:11:29;;;;;;;10.03;9.73;;;13.00;99.90;;;;;;5060592;28;20324;-76
2023/05/09 04:13:57;;;;;;;10.37;10.07;;;13.00;99.90;;;;;;5060343;28;20280;-77
2023/05/09 04:16:26;;;;;;;10.07;9.77;;;13.00;99.90;;;;;;5060171;28;20239;-77
2023/05/09 04:18:53;;;;;;;10.10;9.80;;;13.00;99.90;;;;;;5060462;28;20234;-77
2023/05/09 04:21:20;;;;;;;9.83;9.53;;;13.00;99.90;;;;;;5060436;28;20239;-75
2023/05/09 04:23:48;;;;;;;10.00;9.70;;;13.00;99.90;;;;;;5060289;28;20227;-77
2023/05/09 04:26:16;;;;;;;9.73;9.43;;;13.00;99.90;;;;;;5060227;28;20261;-77
2023/05/09 04:28:44;;;;;;;9.70;9.40;;;13.00;99.90;;;;;;5061033;28;20227;-76
2023/05/09 04:31:13;;;;;;;10.00;9.70;;;13.00;99.90;;;;;;5059912;28;20227;-77
2023/05/09 04:33:42;;;;;;;9.90;9.60;;;13.00;99.90;;;;;;5059839;28;20289;-77
2023/05/09 04:36:10;;;;;;;9.93;9.63;;;13.00;99.90;;;;;;5060318;28;20238;-77
2023/05/09 04:38:37;;;;;;;9.80;9.50;;;13.00;99.90;;;;;;5061723;28;20229;-76
2023/05/09 04:41:05;;;;;;;9.47;9.17;;;13.00;99.90;;;;;;5061401;28;20231;-77
2023/05/09 04:43:33;;;;;;;9.90;9.60;;;13.00;99.90;;;;;;5060517;28;20219;-77
2023/05/09 04:46:01;;;;;;;9.70;9.40;;;13.00;99.90;;;;;;5060190;28;20238;-77
2023/05/09 04:48:28;;;;;;;10.00;9.70;;;13.00;99.90;;;;;;5059961;28;20230;-77
2023/05/09 04:50:57;;;;;;;9.47;9.17;;;13.00;99.90;;;;;;5059111;28;20253;-76
2023/05/09 04:53:25;;;;;;;9.17;8.90;;;13.00;99.90;;;;;;5059374;28;20310;-77
2023/05/09 04:55:53;;;;;;;9.47;9.17;;;13.00;99.90;;;;;;5059570;28;21404;-77
2023/05/09 04:58:20;;;;;;;9.77;9.47;;;13.10;99.90;;;;;;5059634;28;20261;-77
2023/05/09 05:00:48;;;;;;;9.90;9.60;;;13.20;99.90;;;;;;5059276;28;20313;-77
2023/05/09 05:03:16;;;;;;;9.70;9.40;;;13.20;99.90;;;;;;5059936;28;20226;-77
2023/05/09 07:02:16;;;;;;;9.48;9.18;;;14.90;99.90;;;;;;5121859;28;20294;-86
2023/05/09 07:04:49;;;;;;;9.85;9.55;;;14.90;99.90;;;;;;5124813;28;20271;-87
2023/05/09 07:07:23;;;;;;;9.70;9.40;;;14.90;99.90;;;;;;5146533;27;20221;-87
2023/05/09 07:09:52;;;;;;;9.80;9.50;;;15.00;99.90;;;;;;5151646;27;20273;-87
2023/05/09 07:12:40;;;;;;;9.82;9.52;;;15.10;99.90;;;;;;5159938;27;20228;-88
2023/05/09 07:23:26;;;;;;;;;;;;;;;;;;;;;
2023/05/09 07:57:50;;;;;;;9.45;9.15;;;16.10;99.90;;;;;;4858670;22;10436260;-85
2023/05/09 08:00:26;;;;;;;9.70;9.40;;;16.20;99.90;;;;;;5128772;27;20223;-85
2023/05/09 08:03:16;;;;;;;9.55;9.25;;;16.40;99.90;;;;;;5120860;28;20228;-85
2023/05/09 08:05:44;;;;;;;10.20;9.90;;;16.50;99.90;;;;;;5098687;28;20237;-86
2023/05/09 08:08:12;;;;;;;10.10;9.80;;;16.60;99.90;;;;;;5098553;28;20263;-88
2023/05/09 08:13:40;;;;;;;10.00;9.70;;;16.60;99.90;;;;;;5118444;28;20235;-88
2023/05/09 08:20:23;;;;;;;10.07;9.77;;;16.70;99.90;;;;;;5025730;28;20211;-86
2023/05/09 08:30:39;;;;;;;10.43;10.13;;;17.20;99.90;;;;;;5089627;28;20226;-88
2023/05/09 08:33:26;;;;;;;10.40;10.10;;;17.20;99.90;;;;;;5098148;28;20229;-88
2023/05/09 08:43:25;;;;;;;;;;;;;;;;;;;;;
2023/05/09 08:46:54;;;;;;;10.60;10.30;;;17.70;99.90;;;;;;5117542;28;20225;-86
2023/05/09 08:52:26;;;;;;;10.35;10.05;;;17.80;99.90;;;;;;5072126;28;20228;-85
2023/05/09 08:58:21;;;;;;;10.45;10.15;;;18.00;99.90;;;;;;5109755;27;20225;-87
2023/05/09 09:00:50;;;;;;;10.40;10.10;;;18.10;99.90;;;;;;5119817;28;20290;-86
2023/05/09 09:07:17;;;;;;;10.15;9.85;;;18.40;99.90;;;;;;5101471;28;20237;-85
2023/05/09 09:12:41;;;;;;;9.75;9.45;;;18.70;99.90;;;;;;5105563;28;20275;-85
2023/05/09 09:15:20;;;;;;;10.20;9.90;;;18.90;99.90;;;;;;5103549;28;20233;-86
2023/05/09 09:18:08;;;;;;;10.20;9.90;;;19.10;99.90;;;;;;5117334;28;20235;-86
2023/05/09 09:20:46;;;;;;;10.20;9.90;;;19.30;99.90;;;;;;5097322;28;20218;-84
2023/05/09 09:23:33;;;;;;;10.20;9.90;;;19.50;99.90;;;;;;5101741;28;20232;-85
2023/05/09 09:26:10;;;;;;;10.40;10.10;;;19.60;99.90;;;;;;5101361;28;20244;-84
2023/05/09 09:28:43;;;;;;;10.43;10.13;;;19.50;99.90;;;;;;5102134;28;20221;-84
2023/05/09 09:34:31;;;;;;;10.50;10.20;;;19.70;99.90;;;;;;5105249;27;20226;-86
2023/05/09 09:37:02;;;;;;;10.60;10.30;;;20.10;99.90;;;;;;5106003;28;20237;-86
2023/05/09 09:39:33;;;;;;;10.40;10.10;;;20.10;99.90;;;;;;5106946;28;20215;-86
2023/05/09 09:42:17;;;;;;;10.15;9.85;;;20.00;99.90;;;;;;5108542;28;20329;-85
2023/05/09 09:44:56;;;;;;;10.10;9.80;;;20.30;99.90;;;;;;5119995;28;20225;-85
2023/05/09 09:47:34;;;;;;;10.40;10.10;;;20.50;99.90;;;;;;5114974;27;20236;-86
2023/05/09 09:57:53;;;;;;;11.10;10.80;;;20.50;99.90;;;;;;5000458;28;20369;-86
2023/05/09 10:00:46;;;;;;;11.30;10.90;;;20.50;99.90;;;;;;5086629;28;20230;-85
2023/05/09 10:06:53;;;;;;;10.90;10.60;;;20.80;99.90;;;;;;5113815;28;20233;-86
2023/05/09 10:09:36;;;;;;;11.10;10.80;;;20.80;99.90;;;;;;5126113;28;20236;-86
2023/05/09 10:15:21;;;;;;;11.18;10.88;;;20.90;99.90;;;;;;5073736;28;20294;-85
2023/05/09 10:18:10;;;;;;;10.70;10.40;;;21.00;99.90;;;;;;5084545;28;20226;-85
2023/05/09 10:24:22;;;;;;;10.35;10.05;;;21.40;99.90;;;;;;5079406;28;20245;-84
2023/05/09 10:26:59;;;;;;;10.20;9.90;;;21.30;99.90;;;;;;5085683;28;20234;-84
2023/05/09 10:29:41;;;;;;;10.60;10.30;;;21.10;99.90;;;;;;5086182;28;20245;-84
2023/05/09 10:32:42;;;;;;;10.57;10.27;;;21.10;99.90;;;;;;5087715;28;20230;-85
2023/05/09 10:35:18;;;;;;;10.93;10.63;;;21.10;99.90;;;;;;5086823;28;20279;-85
2023/05/09 10:38:24;;;;;;;;;;;;;;;;;;;;;
2023/05/09 10:40:53;;;;;;;10.63;10.32;;;21.10;99.90;;;;;;5085904;28;20222;-85
2023/05/09 10:43:35;;;;;;;10.52;10.23;;;21.00;99.90;;;;;;5086386;28;20231;-85
2023/05/09 10:46:10;;;;;;;10.80;10.50;;;20.80;99.90;;;;;;5086142;28;20233;-84
2023/05/09 10:48:48;;;;;;;10.80;10.50;;;20.90;99.90;;;;;;5083251;28;20265;-85
2023/05/09 10:51:32;;;;;;;10.50;10.20;;;21.00;99.90;;;;;;5086017;28;20245;-84
2023/05/09 10:57:20;;;;;;;10.70;10.40;;;21.20;99.90;;;;;;5105106;28;20229;-85
2023/05/09 10:59:53;;;;;;;10.85;10.55;;;21.50;99.90;;;;;;5120298;28;20251;-87
2023/05/09 11:02:41;;;;;;;10.95;10.65;;;21.70;99.90;;;;;;5124305;28;20939;-87
2023/05/09 11:05:23;;;;;;;10.70;10.40;;;21.80;99.90;;;;;;5110950;28;20237;-86
2023/05/09 11:08:30;;;;;;;10.68;10.38;;;22.00;99.90;;;;;;5113355;28;20286;-84
2023/05/09 11:10:59;;;;;;;10.68;10.38;;;22.00;99.90;;;;;;5098052;22;20270;-77
2023/05/09 11:13:32;;;;;;;10.30;10.00;;;22.00;99.90;;;;;;5061502;28;20234;-77
2023/05/09 11:16:12;;;;;;;10.55;10.25;;;22.30;99.90;;;;;;5061551;28;20230;-78
2023/05/09 11:18:53;;;;;;;10.52;10.23;;;22.30;99.90;;;;;;5061269;28;20241;-78
2023/05/09 11:21:22;;;;;;;10.38;10.07;;;22.50;99.90;;;;;;5060918;28;20245;-78
2023/05/09 11:23:51;;;;;;;10.70;10.40;;;22.50;99.90;;;;;;5060515;28;20231;-78
2023/05/09 11:26:23;;;;;;;10.48;10.18;;;22.40;99.90;;;;;;5060799;28;20257;-78
2023/05/09 11:28:55;;;;;;;10.77;10.48;;;22.40;99.90;;;;;;5060149;28;20235;-78
2023/05/09 11:31:23;;;;;;;10.60;10.30;;;22.40;99.90;;;;;;5060595;28;20242;-80
2023/05/09 11:33:57;;;;;;;10.40;10.10;;;22.60;99.90;;;;;;5061347;28;20242;-79
2023/05/09 11:36:32;;;;;;;10.40;10.10;;;22.90;99.90;;;;;;5062481;28;20317;-78
2023/05/09 11:39:06;;;;;;;10.30;10.00;;;23.10;99.90;;;;;;5062000;28;20230;-80
2023/05/09 11:41:41;;;;;;;10.13;9.82;;;23.00;99.90;;;;;;5062837;28;20289;-79
2023/05/09 11:44:20;;;;;;;10.23;9.93;;;23.00;99.90;;;;;;5063160;28;20230;-79
2023/05/09 11:46:49;;;;;;;10.40;10.10;;;23.00;99.90;;;;;;5060808;28;20238;-78
2023/05/09 11:49:18;;;;;;;10.38;10.07;;;22.90;99.90;;;;;;5061329;28;20233;-79
2023/05/09 11:51:47;;;;;;;10.15;9.85;;;22.90;99.90;;;;;;5061269;28;20249;-76
2023/05/09 11:54:14;;;;;;;10.30;10.00;;;22.90;99.90;;;;;;5060466;28;20211;-78
2023/05/09 11:56:42;;;;;;;10.65;10.35;;;22.80;99.90;;;;;;5060690;28;20227;-76
2023/05/09 11:59:12;;;;;;;10.45;10.15;;;23.00;99.90;;;;;;5059122;28;20266;-76
2023/05/09 12:01:39;;;;;;;10.43;10.13;;;23.20;99.90;;;;;;5058087;28;20321;-76
2023/05/09 12:04:07;;;;;;;10.00;9.70;;;23.20;99.90;;;;;;5058114;28;20219;-75
2023/05/09 12:06:36;;;;;;;10.20;9.90;;;23.10;99.90;;;;;;5057183;28;20241;-77
2023/05/09 12:09:05;;;;;;;9.85;9.55;;;22.90;99.90;;;;;;5057945;28;20718;-77
2023/05/09 12:11:33;;;;;;;10.00;9.70;;;23.10;99.90;;;;;;5057194;28;20239;-78
2023/05/09 12:14:01;;;;;;;9.65;9.35;;;23.30;99.90;;;;;;5057727;28;20233;-76
2023/05/09 12:16:28;;;;;;;10.15;9.85;;;23.30;99.90;;;;;;5058491;28;20236;-76
2023/05/09 12:18:56;;;;;;;9.82;9.52;;;23.40;99.90;;;;;;5057994;28;20230;-76
2023/05/09 12:21:23;;;;;;;9.82;9.52;;;23.50;99.90;;;;;;5057595;28;20234;-77
2023/05/09 12:23:50;;;;;;;9.80;9.50;;;23.60;99.90;;;;;;5057773;28;20317;-77
2023/05/09 12:26:19;;;;;;;10.07;9.77;;;23.40;99.90;;;;;;5057636;28;20245;-76
2023/05/09 12:28:48;;;;;;;10.18;9.88;;;23.60;99.90;;;;;;5056878;28;20269;-78
2023/05/09 12:31:17;;;;;;;10.15;9.85;;;23.50;99.90;;;;;;5056473;28;20258;-76
2023/05/09 12:33:45;;;;;;;9.90;9.60;;;23.70;99.90;;;;;;5057458;28;20880;-77
2023/05/09 12:36:14;;;;;;;10.13;9.82;;;23.70;99.90;;;;;;5056996;28;20234;-76
2023/05/09 12:38:52;;;;;;;9.90;9.60;;;23.60;99.90;;;;;;5053450;28;20327;-76
2023/05/09 12:41:23;;;;;;;9.80;9.50;;;23.70;99.90;;;;;;5056113;28;20242;-76
2023/05/09 12:43:51;;;;;;;10.20;9.90;;;23.80;99.90;;;;;;5059734;28;20245;-76
2023/05/09 12:46:19;;;;;;;10.00;9.70;;;23.80;99.90;;;;;;5059971;28;20234;-77
2023/05/09 12:48:48;;;;;;;10.15;9.85;;;23.90;99.90;;;;;;5059903;28;20261;-76
2023/05/09 12:51:20;;;;;;;10.25;9.95;;;24.10;99.90;;;;;;5060579;28;20269;-77
2023/05/09 12:53:47;;;;;;;10.13;9.82;;;24.20;99.90;;;;;;5060284;28;20279;-77
2023/05/09 12:56:17;;;;;;;10.40;10.10;;;24.50;99.90;;;;;;5062587;28;20233;-77
2023/05/09 12:58:53;;;;;;;10.15;9.85;;;24.60;99.90;;;;;;5060978;28;20289;-77
2023/05/09 13:01:23;;;;;;;10.25;9.95;;;24.50;99.90;;;;;;5059989;28;20234;-77
2023/05/09 13:04:02;;;;;;;10.35;10.05;;;24.30;99.90;;;;;;5060245;28;20233;-76
2023/05/09 13:06:30;;;;;;;10.13;9.82;;;24.20;99.90;;;;;;5061533;28;20223;-77
2023/05/09 13:09:04;;;;;;;9.90;9.60;;;24.00;99.90;;;;;;5060620;28;20231;-77
2023/05/09 13:11:32;;;;;;;9.90;9.60;;;23.90;99.90;;;;;;5060109;28;20254;-76
2023/05/09 13:14:03;;;;;;;10.20;9.90;;;23.90;99.90;;;;;;5060397;28;20231;-76
2023/05/09 13:16:30;;;;;;;10.10;9.80;;;23.90;99.90;;;;;;5060366;28;20322;-76
2023/05/09 13:18:58;;;;;;;10.20;9.90;;;23.90;99.90;;;;;;5060030;28;20250;-77
2023/05/09 13:21:25;;;;;;;9.70;9.40;;;23.90;99.90;;;;;;5060342;28;20239;-78
2023/05/09 13:23:53;;;;;;;9.70;9.40;;;23.90;99.90;;;;;;5060820;28;20238;-78
2023/05/09 13:26:21;;;;;;;9.50;9.20;;;23.70;99.90;;;;;;5060922;28;20238;-77
2023/05/09 13:28:48;;;;;;;9.50;9.20;;;23.60;99.90;;;;;;5060350;28;20250;-78
2023/05/09 13:31:18;;;;;;;10.27;9.98;;;23.40;99.90;;;;;;5059787;28;20241;-78
2023/05/09 13:33:46;;;;;;;10.40;10.10;;;23.50;99.90;;;;;;5064749;28;20321;-79
2023/05/09 13:36:13;;;;;;;10.73;10.43;;;23.60;99.90;;;;;;5055206;28;20299;-78
2023/05/09 13:38:41;;;;;;;10.35;10.05;;;23.70;99.90;;;;;;5042130;28;20234;-77
2023/05/09 13:41:09;;;;;;;10.63;10.32;;;23.80;99.90;;;;;;5059304;28;20715;-77
2023/05/09 13:43:37;;;;;;;10.50;10.20;;;24.00;99.90;;;;;;5059912;28;20253;-77
2023/05/09 13:46:04;;;;;;;10.00;9.70;;;23.90;99.90;;;;;;5059768;28;20231;-76
2023/05/09 13:48:33;;;;;;;9.75;9.45;;;23.80;99.90;;;;;;5057835;28;20241;-77
2023/05/09 13:51:01;;;;;;;9.50;9.20;;;23.90;99.90;;;;;;5056502;28;20249;-77
2023/05/09 13:53:28;;;;;;;9.55;9.25;;;23.80;99.90;;;;;;5057581;28;20227;-77
2023/05/09 13:55:56;;;;;;;9.50;9.20;;;23.80;99.90;;;;;;5060572;28;20231;-77
2023/05/09 13:58:23;;;;;;;9.32;9.02;;;23.80;99.90;;;;;;5068411;28;20234;-79
2023/05/09 14:00:52;;;;;;;9.98;9.68;;;23.80;99.90;;;;;;5075414;28;20326;-80
2023/05/09 14:03:19;;;;;;;10.05;9.75;;;23.80;99.90;;;;;;5074130;28;20238;-80
2023/05/09 14:05:48;;;;;;;9.80;9.50;;;23.90;99.90;;;;;;5076042;28;20245;-81
2023/05/09 14:08:16;;;;;;;10.18;9.88;;;23.60;99.90;;;;;;5076040;28;20247;-79
2023/05/09 14:10:44;;;;;;;10.15;9.85;;;23.70;99.90;;;;;;5074953;28;20262;-80
2023/05/09 14:13:16;;;;;;;9.85;9.55;;;23.70;99.90;;;;;;5075459;28;20241;-80
2023/05/09 14:15:44;;;;;;;9.85;9.55;;;23.70;99.90;;;;;;5068519;28;20230;-77
2023/05/09 14:18:13;;;;;;;10.10;9.80;;;23.80;99.90;;;;;;5060687;28;20238;-77
2023/05/09 14:20:41;;;;;;;9.98;9.68;;;23.70;99.90;;;;;;5059125;28;20292;-77
2023/05/09 14:23:10;;;;;;;10.30;10.00;;;23.70;99.90;;;;;;5059313;28;20234;-77
2023/05/09 14:25:37;;;;;;;9.85;9.55;;;23.60;99.90;;;;;;5061027;28;20253;-76
2023/05/09 14:28:08;;;;;;;9.93;9.63;;;23.60;99.90;;;;;;5060026;28;20234;-78
2023/05/09 14:30:35;;;;;;;9.60;9.30;;;23.60;99.90;;;;;;5060066;28;20236;-77
2023/05/09 14:33:03;;;;;;;9.73;9.43;;;23.70;99.90;;;;;;5060665;28;20230;-77
2023/05/09 14:35:32;;;;;;;9.80;9.50;;;23.80;99.90;;;;;;5058227;28;20262;-78
2023/05/09 14:38:00;;;;;;;9.82;9.52;;;23.80;99.90;;;;;;5061183;28;20234;-77
2023/05/09 14:40:30;;;;;;;9.73;9.43;;;23.90;99.90;;;;;;5060924;28;20234;-77
2023/05/09 14:43:01;;;;;;;9.93;9.63;;;23.80;99.90;;;;;;5060692;28;20235;-78
2023/05/09 14:45:28;;;;;;;9.60;9.30;;;23.80;99.90;;;;;;5062118;28;20239;-78
2023/05/09 14:47:56;;;;;;;9.73;9.43;;;23.70;99.90;;;;;;5060606;28;20239;-79
2023/05/09 14:50:24;;;;;;;9.90;9.60;;;23.70;99.90;;;;;;5065383;28;20242;-82
2023/05/09 14:52:58;;;;;;;9.88;9.57;;;23.50;99.90;;;;;;5063721;28;20245;-82
2023/05/09 14:55:30;;;;;;;9.70;9.40;;;23.30;99.90;;;;;;5069601;28;20223;-83
2023/05/09 14:57:57;;;;;;;9.70;9.40;;;23.20;99.90;;;;;;5065857;28;20242;-82
2023/05/09 15:00:27;;;;;;;10.00;9.70;;;23.00;99.90;;;;;;5065318;28;20294;-83
2023/05/09 15:02:54;;;;;;;10.05;9.75;;;23.10;99.90;;;;;;5064182;28;21068;-82
2023/05/09 15:05:23;;;;;;;9.70;9.40;;;23.10;99.90;;;;;;5063827;28;20239;-82
2023/05/09 15:07:57;;;;;;;9.90;9.60;;;23.10;99.90;;;;;;5061199;28;20234;-78
2023/05/09 15:10:26;;;;;;;9.70;9.40;;;23.10;99.90;;;;;;5059578;28;20247;-79
2023/05/09 15:12:55;;;;;;;9.57;9.27;;;23.20;99.90;;;;;;5061083;28;20230;-78
2023/05/09 15:15:24;;;;;;;9.60;9.30;;;23.30;99.90;;;;;;5060375;28;20238;-79
2023/05/09 15:17:52;;;;;;;9.57;9.27;;;23.40;99.90;;;;;;5061286;28;20241;-78
2023/05/09 15:20:21;;;;;;;8.98;8.77;;;23.50;99.90;;;;;;5061006;28;20291;-79
2023/05/09 15:22:50;;;;;;;8.90;8.70;;;23.50;99.90;;;;;;5054126;28;20318;-78
2023/05/09 15:25:19;;;;;;;8.77;8.57;;;23.50;99.90;;;;;;5062050;28;20235;-80
2023/05/09 15:27:49;;;;;;;8.70;8.50;;;23.50;99.90;;;;;;5062522;28;20238;-80
2023/05/09 15:30:23;;;;;;;8.70;8.50;;;23.60;99.90;;;;;;5060645;28;20328;-80
2023/05/09 15:32:51;;;;;;;8.70;8.50;;;23.70;99.90;;;;;;5062031;28;20222;-80
2023/05/09 15:35:18;;;;;;;8.80;8.60;;;23.70;99.90;;;;;;5063688;28;20227;-80
2023/05/09 15:37:48;;;;;;;8.70;8.50;;;23.80;99.90;;;;;;5062312;28;20317;-81
2023/05/09 15:40:17;;;;;;;9.30;9.00;;;23.80;99.90;;;;;;5061640;28;20348;-80
2023/05/09 15:42:47;;;;;;;9.30;9.00;;;23.80;99.90;;;;;;5062168;28;20323;-80
2023/05/09 15:45:16;;;;;;;9.35;9.05;;;23.60;99.90;;;;;;5062066;28;20256;-80
2023/05/09 15:47:55;;;;;;;9.50;9.20;;;23.70;99.90;;;;;;5062357;28;20345;-80
2023/05/09 15:50:24;;;;;;;9.40;9.10;;;23.70;99.90;;;;;;5062251;28;20234;-80
2023/05/09 15:52:55;;;;;;;9.13;8.93;;;23.80;99.90;;;;;;5064342;28;20228;-80
2023/05/09 15:55:23;;;;;;;9.07;8.85;;;24.00;99.90;;;;;;5074724;28;20304;-79
2023/05/09 15:57:51;;;;;;;9.60;9.30;;;23.90;99.90;;;;;;5065253;28;20364;-80
2023/05/09 16:00:21;;;;;;;9.90;9.60;;;23.70;99.90;;;;;;5063058;28;20249;-80
2023/05/09 16:03:00;;;;;;;9.77;9.48;;;23.70;99.90;;;;;;5062105;28;20227;-80
2023/05/09 16:05:30;;;;;;;9.63;9.32;;;23.80;99.90;;;;;;5061661;28;20232;-81
2023/05/09 16:08:00;;;;;;;9.30;9.00;;;23.80;99.90;;;;;;5056917;28;20250;-81
2023/05/09 16:10:29;;;;;;;9.13;8.93;;;23.80;99.90;;;;;;5062159;28;20333;-80
2023/05/09 16:12:59;;;;;;;9.00;8.80;;;23.70;99.90;;;;;;5061441;28;20238;-80
2023/05/09 16:15:27;;;;;;;8.60;8.40;;;23.60;99.90;;;;;;5062400;28;20322;-80
2023/05/09 16:17:57;;;;;;;8.68;8.48;;;23.60;99.90;;;;;;5063343;28;20233;-81
2023/05/09 16:20:26;;;;;;;8.60;8.40;;;23.70;99.90;;;;;;5065625;28;20317;-81
2023/05/09 16:22:55;;;;;;;9.00;8.80;;;23.60;99.90;;;;;;5065932;28;20317;-80
2023/05/09 16:25:25;;;;;;;8.82;8.63;;;23.30;99.90;;;;;;5065441;28;20290;-81
2023/05/09 16:27:55;;;;;;;8.90;8.70;;;23.10;99.90;;;;;;5066801;28;20238;-81
2023/05/09 16:30:23;;;;;;;9.20;8.90;;;23.00;99.90;;;;;;5065888;28;20235;-80
2023/05/09 16:32:51;;;;;;;9.68;9.38;;;22.90;99.90;;;;;;5065349;28;20257;-80
2023/05/09 16:35:23;;;;;;;10.00;9.70;;;22.70;99.90;;;;;;5064673;28;20293;-81
2023/05/09 16:37:52;;;;;;;10.00;9.70;;;22.60;99.90;;;;;;5066014;28;20235;-80
2023/05/09 16:40:20;;;;;;;10.20;9.90;;;22.50;99.90;;;;;;5064315;28;20239;-81
2023/05/09 16:42:49;;;;;;;10.30;10.00;;;22.50;99.90;;;;;;5064746;28;20215;-80